Wetterdaten: Woche 06.08.18 - 12.08.18 (KW32)
Datum Zeit Temp. I. Temp. A. Feuchte I. Feuchte A. Luftdruck Regen Wind Richtung Taupunkt Windchill
06.08.2018 00:00 25,3 °C 14,7 °C 45 % 76 % 1019,5 hPa 0,0 l/m² 0,1 km/h (0 Bft) NW 10,5 °C 14,7 °C
06.08.2018 01:00 24,8 °C 14,0 °C 46 % 80 % 1019,5 hPa 0,0 l/m² 0,0 km/h (0 Bft) NW 10,6 °C 14,0 °C
06.08.2018 02:00 24,5 °C 13,4 °C 46 % 82 % 1019,6 hPa 0,0 l/m² 0,1 km/h (0 Bft) NW 10,4 °C 13,4 °C
06.08.2018 03:00 24,1 °C 12,7 °C 45 % 83 % 1019,3 hPa 0,0 l/m² 0,7 km/h (0 Bft) NW 9,8 °C 12,7 °C
06.08.2018 04:00 23,8 °C 11,7 °C 45 % 85 % 1019,0 hPa 0,0 l/m² 0,8 km/h (0 Bft) W-NW 9,2 °C 11,7 °C
06.08.2018 05:00 23,2 °C 11,2 °C 46 % 87 % 1019,0 hPa 0,0 l/m² 0,3 km/h (0 Bft) W-NW 9,0 °C 11,2 °C
06.08.2018 06:00 23,2 °C 11,5 °C 47 % 88 % 1019,1 hPa 0,0 l/m² 0,1 km/h (0 Bft) W-NW 9,6 °C 11,5 °C
06.08.2018 07:00 23,5 °C 14,2 °C 47 % 86 % 1019,4 hPa 0,0 l/m² 0,4 km/h (0 Bft) W-NW 11,9 °C 14,2 °C
06.08.2018 08:00 23,8 °C 18,8 °C 47 % 74 % 1019,5 hPa 0,0 l/m² 1,7 km/h (1 Bft) S-SW 14,1 °C 18,8 °C
06.08.2018 09:00 23,9 °C 23,0 °C 48 % 59 % 1019,3 hPa 0,0 l/m² 4,9 km/h (1 Bft) SO 14,4 °C 22,9 °C
06.08.2018 10:00 24,0 °C 25,5 °C 48 % 50 % 1018,9 hPa 0,0 l/m² 4,1 km/h (1 Bft) O-SO 14,1 °C 25,4 °C
06.08.2018 11:00 24,2 °C 27,3 °C 48 % 44 % 1018,5 hPa 0,0 l/m² 3,7 km/h (1 Bft) NO 14,0 °C 27,3 °C
06.08.2018 12:00 24,3 °C 28,5 °C 48 % 40 % 1017,8 hPa 0,0 l/m² 6,3 km/h (2 Bft) SO 13,6 °C 28,4 °C
06.08.2018 13:00 24,4 °C 28,9 °C 48 % 38 % 1017,1 hPa 0,0 l/m² 7,1 km/h (2 Bft) O-SO 13,0 °C 28,7 °C
06.08.2018 14:00 24,6 °C 30,3 °C 48 % 35 % 1016,4 hPa 0,0 l/m² 7,5 km/h (2 Bft) O-SO 13,0 °C 30,2 °C
06.08.2018 15:00 24,6 °C 31,2 °C 48 % 32 % 1015,7 hPa 0,0 l/m² 8,2 km/h (2 Bft) SO 12,5 °C 31,0 °C
06.08.2018 16:00 24,7 °C 31,6 °C 49 % 31 % 1014,9 hPa 0,0 l/m² 8,6 km/h (2 Bft) O-SO 12,3 °C 31,5 °C
06.08.2018 17:00 24,7 °C 31,6 °C 49 % 29 % 1014,4 hPa 0,0 l/m² 7,0 km/h (2 Bft) S-SO 11,5 °C 31,5 °C
06.08.2018 18:00 24,8 °C 30,8 °C 49 % 28 % 1013,7 hPa 0,0 l/m² 9,1 km/h (2 Bft) S-SO 10,1 °C 30,6 °C
06.08.2018 19:00 25,0 °C 29,1 °C 51 % 29 % 1013,3 hPa 0,0 l/m² 5,3 km/h (1 Bft) S-SO 9,2 °C 29,0 °C
06.08.2018 20:00 25,1 °C 26,2 °C 50 % 36 % 1013,3 hPa 0,0 l/m² 1,6 km/h (1 Bft) O-SO 9,9 °C 26,2 °C
06.08.2018 21:00 25,1 °C 21,8 °C 51 % 49 % 1013,4 hPa 0,0 l/m² 0,5 km/h (0 Bft) O-SO 10,4 °C 21,8 °C
06.08.2018 22:00 25,1 °C 18,8 °C 48 % 61 % 1013,6 hPa 0,0 l/m² 0,0 km/h (0 Bft) O-SO 11,0 °C 18,8 °C
06.08.2018 23:00 24,6 °C 17,1 °C 47 % 68 % 1013,7 hPa 0,0 l/m² 0,0 km/h (0 Bft) O-SO 11,1 °C 17,1 °C
07.08.2018 00:00 24,1 °C 16,0 °C 48 % 72 % 1013,5 hPa 0,0 l/m² 0,1 km/h (0 Bft) O-SO 10,9 °C 16,0 °C
07.08.2018 01:00 23,8 °C 15,1 °C 47 % 75 % 1013,2 hPa 0,0 l/m² 0,0 km/h (0 Bft) O-SO 10,6 °C 15,1 °C
07.08.2018 02:00 23,5 °C 14,4 °C 49 % 80 % 1012,8 hPa 0,0 l/m² 0,0 km/h (0 Bft) O-SO 11,0 °C 14,4 °C
07.08.2018 03:00 23,2 °C 13,6 °C 48 % 81 % 1012,5 hPa 0,0 l/m² 0,0 km/h (0 Bft) O 10,3 °C 13,6 °C
07.08.2018 04:00 22,9 °C 13,0 °C 48 % 81 % 1012,2 hPa 0,0 l/m² 0,1 km/h (0 Bft) O 9,8 °C 13,0 °C
07.08.2018 05:00 22,6 °C 12,7 °C 48 % 84 % 1012,2 hPa 0,0 l/m² 0,0 km/h (0 Bft) O 10,1 °C 12,7 °C
07.08.2018 06:00 22,8 °C 12,7 °C 48 % 83 % 1012,3 hPa 0,0 l/m² 0,0 km/h (0 Bft) O 10,0 °C 12,7 °C
07.08.2018 07:00 22,4 °C 15,8 °C 48 % 81 % 1012,4 hPa 0,0 l/m² 0,0 km/h (0 Bft) O 12,5 °C 15,8 °C
07.08.2018 08:00 22,7 °C 21,4 °C 49 % 67 % 1012,3 hPa 0,0 l/m² 2,2 km/h (1 Bft) O-SO 14,9 °C 21,4 °C
07.08.2018 09:00 23,0 °C 26,3 °C 49 % 50 % 1012,0 hPa 0,0 l/m² 4,9 km/h (1 Bft) SO 15,0 °C 26,3 °C
07.08.2018 10:00 23,1 °C 29,8 °C 49 % 42 % 1011,8 hPa 0,0 l/m² 7,9 km/h (2 Bft) S-SO 15,6 °C 29,7 °C
07.08.2018 11:00 23,2 °C 32,9 °C 49 % 36 % 1011,3 hPa 0,0 l/m² 10,4 km/h (2 Bft) S 15,9 °C 32,9 °C
07.08.2018 12:00 23,4 °C 35,0 °C 49 % 31 % 1010,5 hPa 0,0 l/m² 13,0 km/h (3 Bft) S 15,3 °C 35,0 °C
07.08.2018 13:00 23,5 °C 36,1 °C 49 % 28 % 1009,9 hPa 0,0 l/m² 15,8 km/h (3 Bft) SW 14,4 °C 36,1 °C
07.08.2018 14:00 23,7 °C 36,9 °C 49 % 26 % 1009,4 hPa 0,0 l/m² 17,6 km/h (3 Bft) S 13,9 °C 36,9 °C
07.08.2018 15:00 23,8 °C 37,5 °C 49 % 25 % 1008,9 hPa 0,0 l/m² 13,4 km/h (3 Bft) S 13,8 °C 37,5 °C
07.08.2018 16:00 23,9 °C 37,7 °C 49 % 24 % 1008,3 hPa 0,0 l/m² 13,1 km/h (3 Bft) S 13,3 °C 37,7 °C
07.08.2018 17:00 24,0 °C 38,0 °C 50 % 21 % 1008,0 hPa 0,0 l/m² 12,9 km/h (3 Bft) W-SW 12,1 °C 38,0 °C
07.08.2018 18:00 24,1 °C 37,6 °C 50 % 21 % 1007,8 hPa 0,0 l/m² 8,0 km/h (2 Bft) W-SW 11,3 °C 37,6 °C
07.08.2018 19:00 24,3 °C 34,9 °C 51 % 25 % 1007,7 hPa 0,0 l/m² 3,5 km/h (1 Bft) S-SW 11,8 °C 34,9 °C
07.08.2018 20:00 24,4 °C 30,9 °C 51 % 35 % 1007,8 hPa 0,0 l/m² 0,8 km/h (0 Bft) O-SO 13,5 °C 30,9 °C
07.08.2018 21:00 24,6 °C 28,1 °C 52 % 41 % 1007,9 hPa 0,0 l/m² 0,9 km/h (0 Bft) O-SO 13,7 °C 28,1 °C
07.08.2018 22:00 24,8 °C 26,5 °C 52 % 47 % 1008,2 hPa 0,0 l/m² 1,7 km/h (1 Bft) O-SO 14,4 °C 26,5 °C
07.08.2018 23:00 24,8 °C 26,1 °C 52 % 47 % 1008,3 hPa 0,0 l/m² 0,9 km/h (0 Bft) O-SO 14,0 °C 26,1 °C
08.08.2018 00:00 24,8 °C 24,5 °C 52 % 53 % 1008,5 hPa 0,0 l/m² 0,7 km/h (0 Bft) O-SO 14,2 °C 24,5 °C
08.08.2018 01:00 24,7 °C 23,5 °C 52 % 56 % 1008,4 hPa 0,0 l/m² 2,0 km/h (1 Bft) O-SO 14,2 °C 23,5 °C
08.08.2018 02:00 24,7 °C 22,6 °C 52 % 60 % 1008,0 hPa 0,0 l/m² 0,9 km/h (0 Bft) NO 14,3 °C 22,6 °C
08.08.2018 03:00 24,6 °C 20,9 °C 53 % 67 % 1007,8 hPa 0,0 l/m² 0,4 km/h (0 Bft) O 14,6 °C 20,9 °C
08.08.2018 04:00 24,4 °C 20,1 °C 54 % 70 % 1008,2 hPa 0,0 l/m² 1,1 km/h (0 Bft) O 14,5 °C 20,1 °C
08.08.2018 05:00 24,3 °C 19,5 °C 54 % 72 % 1008,0 hPa 0,0 l/m² 3,6 km/h (1 Bft) O-SO 14,4 °C 19,5 °C
08.08.2018 06:00 24,2 °C 20,0 °C 54 % 71 % 1008,2 hPa 0,0 l/m² 1,6 km/h (1 Bft) O-SO 14,6 °C 20,0 °C
08.08.2018 07:00 24,2 °C 21,7 °C 54 % 71 % 1008,6 hPa 0,0 l/m² 1,1 km/h (0 Bft) S-SO 16,2 °C 21,7 °C
08.08.2018 08:00 24,3 °C 26,9 °C 54 % 55 % 1008,7 hPa 0,0 l/m² 7,3 km/h (2 Bft) S-SO 17,0 °C 26,7 °C
08.08.2018 09:00 24,3 °C 30,0 °C 54 % 45 % 1009,0 hPa 0,0 l/m² 10,7 km/h (2 Bft) SW 16,6 °C 29,6 °C
08.08.2018 10:00 24,4 °C 31,8 °C 54 % 40 % 1009,5 hPa 0,0 l/m² 16,7 km/h (3 Bft) W 16,3 °C 31,5 °C
08.08.2018 11:00 24,4 °C 33,3 °C 54 % 37 % 1009,2 hPa 0,0 l/m² 13,3 km/h (3 Bft) W 16,5 °C 33,3 °C
08.08.2018 12:00 24,5 °C 34,8 °C 53 % 35 % 1009,0 hPa 0,0 l/m² 7,6 km/h (2 Bft) SW 16,8 °C 34,8 °C
08.08.2018 13:00 24,6 °C 35,6 °C 53 % 33 % 1008,8 hPa 0,0 l/m² 9,6 km/h (2 Bft) S-SW 16,7 °C 35,6 °C
08.08.2018 14:00 24,7 °C 35,9 °C 53 % 31 % 1009,3 hPa 0,0 l/m² 20,5 km/h (4 Bft) W-SW 16,2 °C 35,9 °C
08.08.2018 15:00 24,8 °C 36,9 °C 53 % 29 % 1008,9 hPa 0,0 l/m² 20,8 km/h (4 Bft) W-SW 16,1 °C 36,9 °C
08.08.2018 16:00 25,0 °C 36,3 °C 54 % 30 % 1009,1 hPa 0,0 l/m² 21,8 km/h (4 Bft) W-SW 15,8 °C 36,3 °C
08.08.2018 17:00 25,0 °C 34,8 °C 54 % 31 % 1009,5 hPa 0,0 l/m² 18,6 km/h (3 Bft) W 15,1 °C 34,8 °C
08.08.2018 18:00 25,0 °C 34,5 °C 54 % 32 % 1009,7 hPa 0,0 l/m² 15,3 km/h (3 Bft) W 15,4 °C 34,5 °C
08.08.2018 19:00 25,3 °C 32,6 °C 55 % 37 % 1010,0 hPa 0,0 l/m² 10,3 km/h (2 Bft) N 15,8 °C 32,6 °C
08.08.2018 20:00 25,4 °C 29,6 °C 55 % 44 % 1010,8 hPa 0,0 l/m² 2,0 km/h (1 Bft) N 15,9 °C 29,6 °C
08.08.2018 21:00 25,4 °C 26,3 °C 55 % 53 % 1011,5 hPa 0,0 l/m² 0,3 km/h (0 Bft) N-NW 15,8 °C 26,3 °C
08.08.2018 22:00 25,4 °C 24,3 °C 55 % 60 % 1012,3 hPa 0,0 l/m² 2,3 km/h (1 Bft) NW 16,0 °C 24,3 °C
08.08.2018 23:00 25,6 °C 24,8 °C 54 % 57 % 1012,8 hPa 0,0 l/m² 4,7 km/h (1 Bft) N 15,7 °C 24,7 °C
09.08.2018 00:00 25,6 °C 24,1 °C 53 % 58 % 1013,2 hPa 0,0 l/m² 4,4 km/h (1 Bft) N 15,4 °C 24,0 °C
09.08.2018 01:00 25,5 °C 23,1 °C 53 % 62 % 1013,4 hPa 0,0 l/m² 1,6 km/h (1 Bft) NW 15,3 °C 23,1 °C
09.08.2018 02:00 25,4 °C 22,1 °C 54 % 65 % 1013,5 hPa 0,0 l/m² 2,7 km/h (1 Bft) N-NW 15,3 °C 22,1 °C
09.08.2018 03:00 25,2 °C 21,3 °C 54 % 69 % 1013,6 hPa 0,0 l/m² 0,9 km/h (0 Bft) N 15,3 °C 21,2 °C
09.08.2018 04:00 25,1 °C 20,5 °C 54 % 71 % 1013,7 hPa 0,0 l/m² 2,7 km/h (1 Bft) W 15,2 °C 20,5 °C
09.08.2018 05:00 24,9 °C 19,7 °C 55 % 75 % 1013,9 hPa 0,0 l/m² 1,1 km/h (1 Bft) N 15,1 °C 19,7 °C
09.08.2018 06:00 24,6 °C 19,4 °C 56 % 77 % 1014,1 hPa 0,0 l/m² 2,1 km/h (1 Bft) W 15,3 °C 19,4 °C
09.08.2018 07:00 24,5 °C 21,6 °C 57 % 75 % 1014,2 hPa 0,0 l/m² 4,5 km/h (1 Bft) N 17,0 °C 21,4 °C
09.08.2018 08:00 24,7 °C 24,1 °C 57 % 69 % 1014,2 hPa 0,0 l/m² 6,6 km/h (2 Bft) N 18,0 °C 23,7 °C
09.08.2018 09:00 25,0 °C 26,7 °C 59 % 62 % 1014,1 hPa 0,0 l/m² 6,8 km/h (2 Bft) O-SO 18,7 °C 26,4 °C
09.08.2018 10:00 25,0 °C 28,7 °C 58 % 56 % 1013,5 hPa 0,0 l/m² 10,9 km/h (2 Bft) O-SO 19,0 °C 28,1 °C
09.08.2018 11:00 25,0 °C 31,0 °C 57 % 50 % 1012,7 hPa 0,0 l/m² 11,8 km/h (2 Bft) O-SO 19,2 °C 30,7 °C
09.08.2018 12:00 25,1 °C 32,7 °C 57 % 44 % 1011,9 hPa 0,0 l/m² 12,9 km/h (3 Bft) O-SO 18,9 °C 32,7 °C
09.08.2018 13:00 25,2 °C 34,5 °C 56 % 39 % 1010,8 hPa 0,0 l/m² 15,6 km/h (3 Bft) O-SO 18,6 °C 34,5 °C
09.08.2018 14:00 25,3 °C 35,7 °C 56 % 34 % 1009,8 hPa 0,0 l/m² 13,9 km/h (3 Bft) O-SO 17,6 °C 35,7 °C
09.08.2018 15:00 25,4 °C 35,8 °C 56 % 33 % 1008,6 hPa 0,0 l/m² 18,5 km/h (3 Bft) SO 16,9 °C 35,8 °C
09.08.2018 16:00 25,6 °C 35,5 °C 56 % 33 % 1007,6 hPa 0,0 l/m² 17,5 km/h (3 Bft) SO 16,6 °C 35,5 °C
09.08.2018 17:00 25,7 °C 35,8 °C 56 % 31 % 1007,0 hPa 0,0 l/m² 17,3 km/h (3 Bft) SO 15,8 °C 35,8 °C
09.08.2018 18:00 25,8 °C 35,1 °C 57 % 31 % 1006,6 hPa 0,0 l/m² 13,8 km/h (3 Bft) SO 15,6 °C 35,1 °C
09.08.2018 19:00 26,0 °C 28,7 °C 58 % 52 % 1007,4 hPa 1,6 l/m² 25,5 km/h (4 Bft) W 17,0 °C 26,9 °C
09.08.2018 20:00 26,1 °C 23,4 °C 59 % 72 % 1008,8 hPa 0,0 l/m² 9,3 km/h (2 Bft) SO 17,9 °C 22,6 °C
09.08.2018 21:00 26,0 °C 22,1 °C 59 % 75 % 1009,4 hPa 0,5 l/m² 5,0 km/h (1 Bft) W 17,4 °C 22,0 °C
09.08.2018 22:00 26,2 °C 21,2 °C 59 % 79 % 1010,2 hPa 0,0 l/m² 3,6 km/h (1 Bft) W 17,3 °C 20,9 °C
09.08.2018 23:00 26,2 °C 21,4 °C 56 % 72 % 1011,1 hPa 0,0 l/m² 13,9 km/h (3 Bft) W-SW 16,0 °C 19,3 °C
10.08.2018 00:00 26,0 °C 20,8 °C 55 % 73 % 1012,0 hPa 0,0 l/m² 5,8 km/h (2 Bft) W-SW 15,8 °C 20,5 °C
10.08.2018 01:00 25,9 °C 20,6 °C 55 % 75 % 1012,6 hPa 0,0 l/m² 8,9 km/h (2 Bft) W-SW 16,0 °C 19,7 °C
10.08.2018 02:00 25,8 °C 21,2 °C 55 % 73 % 1013,3 hPa 0,0 l/m² 16,9 km/h (3 Bft) W-SW 16,1 °C 18,4 °C
10.08.2018 03:00 25,3 °C 21,0 °C 54 % 71 % 1014,0 hPa 0,0 l/m² 19,4 km/h (3 Bft) W-SW 15,5 °C 17,7 °C
10.08.2018 04:00 24,9 °C 19,9 °C 53 % 72 % 1014,6 hPa 0,0 l/m² 14,9 km/h (3 Bft) W-SW 14,7 °C 17,3 °C
10.08.2018 05:00 24,6 °C 19,5 °C 52 % 72 % 1015,3 hPa 0,0 l/m² 19,1 km/h (3 Bft) W-SW 14,2 °C 15,8 °C
10.08.2018 06:00 24,2 °C 19,4 °C 52 % 69 % 1016,5 hPa 0,0 l/m² 20,6 km/h (4 Bft) W-SW 13,6 °C 15,4 °C
10.08.2018 07:00 24,3 °C 18,7 °C 50 % 66 % 1017,8 hPa 0,0 l/m² 18,9 km/h (3 Bft) W 12,2 °C 14,9 °C
10.08.2018 08:00 24,7 °C 19,2 °C 51 % 65 % 1018,8 hPa 0,0 l/m² 15,5 km/h (3 Bft) W 12,5 °C 16,3 °C
10.08.2018 09:00 24,7 °C 20,1 °C 48 % 61 % 1019,8 hPa 0,0 l/m² 20,6 km/h (4 Bft) W 12,3 °C 16,3 °C
10.08.2018 10:00 24,5 °C 20,7 °C 45 % 55 % 1020,4 hPa 0,0 l/m² 22,3 km/h (4 Bft) W 11,4 °C 16,8 °C
10.08.2018 11:00 24,6 °C 22,1 °C 44 % 50 % 1020,6 hPa 0,0 l/m² 23,1 km/h (4 Bft) W-SW 11,1 °C 18,5 °C
10.08.2018 12:00 24,9 °C 23,7 °C 43 % 44 % 1020,6 hPa 0,0 l/m² 20,1 km/h (4 Bft) W 10,8 °C 21,1 °C
10.08.2018 13:00 25,1 °C 24,6 °C 42 % 39 % 1020,5 hPa 0,0 l/m² 20,9 km/h (4 Bft) W 9,6 °C 22,2 °C
10.08.2018 14:00 25,3 °C 25,6 °C 41 % 37 % 1020,8 hPa 0,0 l/m² 14,1 km/h (3 Bft) W 9,7 °C 24,3 °C
10.08.2018 15:00 25,4 °C 25,4 °C 42 % 36 % 1020,8 hPa 0,0 l/m² 18,7 km/h (3 Bft) W-SW 9,2 °C 23,5 °C
10.08.2018 16:00 25,6 °C 26,5 °C 43 % 32 % 1020,4 hPa 0,0 l/m² 18,7 km/h (3 Bft) W-SW 8,7 °C 24,9 °C
10.08.2018 17:00 25,6 °C 26,5 °C 43 % 31 % 1020,2 hPa 0,0 l/m² 18,2 km/h (3 Bft) W 8,0 °C 24,9 °C
10.08.2018 18:00 25,3 °C 26,0 °C 38 % 31 % 1019,9 hPa 0,0 l/m² 13,4 km/h (3 Bft) W 7,3 °C 24,8 °C
10.08.2018 19:00 25,1 °C 23,8 °C 37 % 32 % 1019,7 hPa 0,0 l/m² 10,7 km/h (2 Bft) W 6,2 °C 22,7 °C
10.08.2018 20:00 25,3 °C 22,3 °C 37 % 36 % 1020,0 hPa 0,0 l/m² 6,7 km/h (2 Bft) W 6,6 °C 21,8 °C
10.08.2018 21:00 25,3 °C 19,2 °C 38 % 45 % 1020,2 hPa 0,0 l/m² 0,0 km/h (0 Bft) W 7,1 °C 19,2 °C
10.08.2018 22:00 25,2 °C 17,0 °C 40 % 56 % 1020,2 hPa 0,0 l/m² 0,1 km/h (0 Bft) W 8,1 °C 17,0 °C
10.08.2018 23:00 25,2 °C 15,4 °C 41 % 60 % 1020,2 hPa 0,0 l/m² 0,0 km/h (0 Bft) W 7,8 °C 15,4 °C
11.08.2018 00:00 25,1 °C 14,5 °C 41 % 64 % 1020,2 hPa 0,0 l/m² 0,0 km/h (0 Bft) W 7,7 °C 14,5 °C
11.08.2018 01:00 25,1 °C 14,2 °C 42 % 68 % 1019,9 hPa 0,0 l/m² 0,8 km/h (0 Bft) W-SW 8,4 °C 14,2 °C
11.08.2018 02:00 25,0 °C 14,0 °C 42 % 72 % 1019,5 hPa 0,0 l/m² 1,0 km/h (0 Bft) W-SW 9,1 °C 14,0 °C
11.08.2018 03:00 24,9 °C 14,2 °C 43 % 72 % 1019,3 hPa 0,0 l/m² 1,3 km/h (1 Bft) SO 9,2 °C 14,2 °C
11.08.2018 04:00 24,9 °C 14,3 °C 43 % 69 % 1018,8 hPa 0,0 l/m² 2,0 km/h (1 Bft) N-NO 8,6 °C 14,3 °C
11.08.2018 05:00 24,8 °C 13,5 °C 43 % 72 % 1018,6 hPa 0,0 l/m² 0,5 km/h (0 Bft) O 8,5 °C 13,5 °C
11.08.2018 06:00 24,7 °C 13,3 °C 43 % 76 % 1018,7 hPa 0,0 l/m² 2,2 km/h (1 Bft) O-SO 9,2 °C 13,3 °C
11.08.2018 07:00 24,6 °C 15,4 °C 43 % 72 % 1018,7 hPa 0,0 l/m² 1,2 km/h (1 Bft) O-SO 10,5 °C 15,4 °C
11.08.2018 08:00 24,6 °C 18,3 °C 43 % 61 % 1018,8 hPa 0,0 l/m² 3,9 km/h (1 Bft) O-SO 10,7 °C 18,1 °C
11.08.2018 09:00 24,8 °C 21,0 °C 46 % 50 % 1018,9 hPa 0,0 l/m² 14,6 km/h (3 Bft) W 10,3 °C 18,8 °C
11.08.2018 10:00 25,1 °C 22,6 °C 47 % 45 % 1019,1 hPa 0,0 l/m² 20,7 km/h (4 Bft) W 10,1 °C 19,6 °C
11.08.2018 11:00 25,2 °C 24,6 °C 46 % 39 % 1019,2 hPa 0,0 l/m² 22,3 km/h (4 Bft) W 9,7 °C 21,9 °C
11.08.2018 12:00 25,2 °C 24,0 °C 46 % 39 % 1019,5 hPa 0,0 l/m² 19,7 km/h (3 Bft) W 9,2 °C 21,6 °C
11.08.2018 13:00 25,3 °C 25,2 °C 45 % 35 % 1019,1 hPa 0,0 l/m² 21,1 km/h (4 Bft) W 8,7 °C 22,9 °C
11.08.2018 14:00 25,2 °C 26,2 °C 44 % 31 % 1018,8 hPa 0,0 l/m² 23,1 km/h (4 Bft) W 7,9 °C 24,0 °C
11.08.2018 15:00 25,2 °C 26,2 °C 45 % 30 % 1018,8 hPa 0,0 l/m² 22,1 km/h (4 Bft) W 7,1 °C 24,2 °C
11.08.2018 16:00 25,3 °C 25,8 °C 44 % 29 % 1018,6 hPa 0,0 l/m² 20,7 km/h (4 Bft) W 6,5 °C 23,7 °C
11.08.2018 17:00 25,2 °C 25,1 °C 44 % 30 % 1018,5 hPa 0,0 l/m² 21,1 km/h (4 Bft) W 6,3 °C 22,7 °C
11.08.2018 18:00 25,1 °C 24,8 °C 43 % 30 % 1018,7 hPa 0,0 l/m² 19,4 km/h (3 Bft) W-NW 5,8 °C 22,6 °C
11.08.2018 19:00 25,0 °C 22,9 °C 43 % 32 % 1018,9 hPa 0,0 l/m² 16,2 km/h (3 Bft) W-NW 5,2 °C 20,8 °C
11.08.2018 20:00 24,9 °C 20,1 °C 43 % 35 % 1019,3 hPa 0,0 l/m² 10,0 km/h (2 Bft) W-NW 4,1 °C 18,9 °C
11.08.2018 21:00 24,9 °C 16,6 °C 44 % 42 % 1019,7 hPa 0,0 l/m² 2,2 km/h (1 Bft) NW 3,6 °C 16,6 °C
11.08.2018 22:00 24,8 °C 15,4 °C 44 % 48 % 1020,0 hPa 0,0 l/m² 3,3 km/h (1 Bft) N 4,4 °C 15,4 °C
11.08.2018 23:00 24,8 °C 13,4 °C 44 % 57 % 1020,1 hPa 0,0 l/m² 0,4 km/h (0 Bft) W 5,0 °C 13,4 °C
12.08.2018 00:00 24,7 °C 11,8 °C 43 % 66 % 1020,2 hPa 0,0 l/m² 0,8 km/h (0 Bft) W-SW 5,7 °C 11,8 °C
12.08.2018 01:00 24,6 °C 10,6 °C 43 % 73 % 1020,2 hPa 0,0 l/m² 0,1 km/h (0 Bft) NW 6,0 °C 10,6 °C
12.08.2018 02:00 24,5 °C 9,7 °C 42 % 78 % 1020,0 hPa 0,0 l/m² 0,3 km/h (0 Bft) NW 6,0 °C 9,7 °C
12.08.2018 03:00 24,4 °C 9,2 °C 42 % 79 % 1019,7 hPa 0,0 l/m² 0,4 km/h (0 Bft) O-NO 5,8 °C 9,2 °C
12.08.2018 04:00 24,2 °C 8,9 °C 42 % 81 % 1019,6 hPa 0,0 l/m² 0,3 km/h (0 Bft) O-NO 5,9 °C 8,9 °C
12.08.2018 05:00 24,1 °C 8,5 °C 42 % 82 % 1019,2 hPa 0,0 l/m² 0,0 km/h (0 Bft) O-NO 5,7 °C 8,5 °C
12.08.2018 06:00 23,9 °C 8,1 °C 42 % 83 % 1019,0 hPa 0,0 l/m² 0,1 km/h (0 Bft) O-NO 5,4 °C 8,1 °C
12.08.2018 07:00 23,8 °C 10,8 °C 42 % 82 % 1018,6 hPa 0,0 l/m² 0,5 km/h (0 Bft) O-NO 7,9 °C 10,8 °C
12.08.2018 08:00 23,8 °C 15,7 °C 42 % 67 % 1018,1 hPa 0,0 l/m² 1,0 km/h (0 Bft) O-SO 9,5 °C 15,7 °C
12.08.2018 09:00 23,9 °C 20,1 °C 43 % 50 % 1017,8 hPa 0,0 l/m² 5,4 km/h (1 Bft) S-SO 9,3 °C 19,9 °C
12.08.2018 10:00 24,3 °C 23,2 °C 44 % 41 % 1017,4 hPa 0,0 l/m² 7,5 km/h (2 Bft) S-SO 9,0 °C 22,7 °C
12.08.2018 11:00 24,6 °C 25,5 °C 45 % 34 % 1016,7 hPa 0,0 l/m² 7,3 km/h (2 Bft) SW 8,6 °C 25,0 °C
12.08.2018 12:00 24,8 °C 26,8 °C 45 % 31 % 1016,0 hPa 0,0 l/m² 12,7 km/h (3 Bft) W-SW 8,0 °C 25,8 °C
12.08.2018 13:00 25,0 °C 27,8 °C 45 % 28 % 1015,1 hPa 0,0 l/m² 11,1 km/h (2 Bft) S-SW 7,7 °C 27,1 °C
12.08.2018 14:00 25,3 °C 28,6 °C 45 % 26 % 1014,4 hPa 0,0 l/m² 13,0 km/h (3 Bft) W-SW 7,1 °C 27,9 °C
12.08.2018 15:00 25,4 °C 29,5 °C 44 % 24 % 1013,6 hPa 0,0 l/m² 12,2 km/h (2 Bft) W 6,9 °C 29,0 °C
12.08.2018 16:00 25,4 °C 29,8 °C 46 % 23 % 1012,7 hPa 0,0 l/m² 9,9 km/h (2 Bft) W 6,5 °C 29,4 °C
12.08.2018 17:00 25,2 °C 30,3 °C 45 % 23 % 1012,1 hPa 0,0 l/m² 7,5 km/h (2 Bft) W 6,7 °C 30,1 °C
12.08.2018 18:00 25,1 °C 29,4 °C 45 % 22 % 1011,4 hPa 0,0 l/m² 9,5 km/h (2 Bft) W 5,4 °C 29,1 °C
12.08.2018 19:00 25,1 °C 27,4 °C 43 % 23 % 1010,8 hPa 0,0 l/m² 5,3 km/h (1 Bft) W-SW 4,6 °C 27,3 °C
12.08.2018 20:00 25,3 °C 24,0 °C 44 % 34 % 1010,6 hPa 0,0 l/m² 0,6 km/h (0 Bft) N 7,0 °C 24,0 °C
12.08.2018 21:00 25,6 °C 19,4 °C 42 % 46 % 1010,5 hPa 0,0 l/m² 0,1 km/h (0 Bft) O-NO 7,3 °C 19,4 °C
12.08.2018 22:00 25,5 °C 16,8 °C 41 % 55 % 1010,3 hPa 0,0 l/m² 0,1 km/h (0 Bft) O-SO 7,6 °C 16,8 °C
12.08.2018 23:00 25,2 °C 15,0 °C 43 % 62 % 1010,1 hPa 0,0 l/m² 0,0 km/h (0 Bft) O-SO 7,8 °C 15,0 °C
Min-Datum _ 07.08.18 12.08.18 10.08.18 07.08.18 09.08.18 - 12.08.18 - 11.08.18 12.08.18
_ Min-Zeit 07:25 06:11 20:13 18:01 19:15 - 23:01 - 21:51 06:11
Minimum _ 22,3 °C 7,9 °C 36 % 20 % 1006,1 hPa - 0,0 km/h (0 Bft) - 3,3 °C 7,9 °C
Max-Datum _ 09.08.18 07.08.18 09.08.18 06.08.18 10.08.18 09.08.18 09.08.18 - 09.08.18 07.08.18
_ Max-Zeit 22:43 17:25 22:01 07:01 10:57 19:39 19:25 - 11:01 17:25
Maximum _ 26,3 °C 38,4 °C 59 % 88 % 1020,9 hPa 1,6 l/m² 46,4 km/h
W (6 Bft)
- 19,4 °C 38,4 °C
Durchschnitt _ 24,7 °C 23,4 °C 49 % 52 % 1014,5 hPa #2,1 l/m² 7,9 km/h (2 Bft) W 11,8 °C 22,8 °C
© 2009 Mathias Hoßbach